createdAt,value
2018-07-22T00:02:24.600Z,6.33
2018-07-22T00:04:52.294Z,5.73
2018-07-22T00:07:19.902Z,5.57
2018-07-22T00:09:47.533Z,6.50
2018-07-22T00:12:15.164Z,6.07
2018-07-22T00:14:42.810Z,4.97
2018-07-22T00:17:10.688Z,4.97
2018-07-22T00:19:38.428Z,5.40
2018-07-22T00:22:06.081Z,5.60
2018-07-22T00:24:33.781Z,6.20
2018-07-22T00:27:01.414Z,6.47
2018-07-22T00:29:29.147Z,5.37
2018-07-22T00:31:56.775Z,6.10
2018-07-22T00:34:24.554Z,5.80
2018-07-22T00:36:52.198Z,6.10
2018-07-22T00:39:19.780Z,5.70
2018-07-22T00:41:47.450Z,5.83
2018-07-22T00:44:15.149Z,5.77
2018-07-22T00:46:42.745Z,5.80
2018-07-22T00:49:10.446Z,5.40
2018-07-22T00:51:38.137Z,6.40
2018-07-22T00:54:05.801Z,5.60
2018-07-22T00:56:33.403Z,5.60
2018-07-22T00:59:01.143Z,5.60
2018-07-22T01:01:28.829Z,6.10
2018-07-22T01:03:56.459Z,6.43
2018-07-22T01:06:24.170Z,5.60
2018-07-22T01:08:51.777Z,5.33
2018-07-22T01:11:19.433Z,5.50
2018-07-22T01:13:47.049Z,6.00
2018-07-22T01:16:14.754Z,6.17
2018-07-22T01:18:42.336Z,5.33
2018-07-22T01:21:10.053Z,5.93
2018-07-22T01:23:37.713Z,5.47
2018-07-22T01:26:05.422Z,6.13
2018-07-22T01:28:33.125Z,6.37
2018-07-22T01:31:00.765Z,5.83
2018-07-22T01:33:28.446Z,6.20
2018-07-22T01:35:56.172Z,6.27
2018-07-22T01:38:23.786Z,5.77
2018-07-22T01:40:51.541Z,6.07
2018-07-22T01:43:19.168Z,5.43
2018-07-22T01:45:46.780Z,5.60
2018-07-22T01:48:14.449Z,5.57
2018-07-22T01:50:42.074Z,4.90
2018-07-22T01:53:09.867Z,5.20
2018-07-22T01:55:37.524Z,4.77
2018-07-22T01:58:05.262Z,5.83
2018-07-22T02:00:32.872Z,5.37
2018-07-22T02:03:00.562Z,5.27
2018-07-22T02:05:29.035Z,4.83
2018-07-22T02:07:57.006Z,4.63
2018-07-22T02:10:36.726Z,4.80
2018-07-22T02:13:04.582Z,5.00
2018-07-22T02:15:32.290Z,5.30
2018-07-22T02:17:59.929Z,5.03
2018-07-22T02:20:27.689Z,4.37
2018-07-22T02:22:55.321Z,4.70
2018-07-22T02:25:23.034Z,4.80
2018-07-22T02:27:50.670Z,5.57
2018-07-22T02:30:18.375Z,4.90
2018-07-22T02:32:46.115Z,4.90
2018-07-22T02:35:13.753Z,4.87
2018-07-22T02:37:41.455Z,5.13
2018-07-22T02:40:09.146Z,4.90
2018-07-22T02:42:36.994Z,5.30
2018-07-22T02:45:04.837Z,5.73
2018-07-22T02:47:32.469Z,5.63
2018-07-22T02:50:00.171Z,6.30
2018-07-22T02:52:27.822Z,5.77
2018-07-22T02:54:55.467Z,6.37
2018-07-22T02:57:23.100Z,7.00
2018-07-22T02:59:50.825Z,6.43
2018-07-22T03:02:18.493Z,5.53
2018-07-22T03:04:46.257Z,5.70
2018-07-22T03:07:13.923Z,5.73
2018-07-22T03:09:41.657Z,5.87
2018-07-22T03:12:09.377Z,6.73
2018-07-22T03:14:37.001Z,6.67
2018-07-22T03:17:04.780Z,6.00
2018-07-22T03:19:32.410Z,6.67
2018-07-22T03:22:00.122Z,5.73
2018-07-22T03:24:27.864Z,5.70
2018-07-22T03:26:55.506Z,5.13
2018-07-22T03:29:23.157Z,5.97
2018-07-22T03:31:50.901Z,6.30
2018-07-22T03:34:18.585Z,6.13
2018-07-22T03:36:46.247Z,5.33
2018-07-22T03:39:13.868Z,5.37
2018-07-22T03:41:41.598Z,5.77
2018-07-22T03:44:09.266Z,5.53
2018-07-22T03:46:36.868Z,5.37
2018-07-22T03:49:04.552Z,6.10
2018-07-22T03:51:32.246Z,5.30
2018-07-22T03:53:59.958Z,5.33
2018-07-22T03:56:27.713Z,4.80
2018-07-22T03:58:55.322Z,6.20
2018-07-22T04:01:23.026Z,6.10
2018-07-22T04:03:50.725Z,6.00
2018-07-22T04:06:18.474Z,5.63
2018-07-22T04:08:46.177Z,5.57
2018-07-22T04:11:13.845Z,5.00
2018-07-22T04:13:41.574Z,4.97
2018-07-22T04:16:09.320Z,5.73
2018-07-22T04:18:43.633Z,5.63
2018-07-22T04:21:11.373Z,6.13
2018-07-22T04:23:39.137Z,5.63
2018-07-22T04:26:06.779Z,5.00
2018-07-22T04:28:34.443Z,4.90
2018-07-22T04:31:02.130Z,5.30
2018-07-22T04:33:29.805Z,5.03
2018-07-22T04:35:57.417Z,4.70
2018-07-22T04:38:25.107Z,4.80
2018-07-22T04:40:52.843Z,4.80
2018-07-22T04:43:20.456Z,4.90
2018-07-22T04:45:48.073Z,4.80
2018-07-22T04:48:15.758Z,6.37
2018-07-22T04:50:43.448Z,6.17
2018-07-22T04:53:11.212Z,5.33
2018-07-22T04:55:38.953Z,4.93
2018-07-22T04:58:06.693Z,5.03
2018-07-22T05:00:34.426Z,5.10
2018-07-22T05:03:02.069Z,5.10
2018-07-22T05:05:29.788Z,5.90
2018-07-22T05:07:57.458Z,4.90
2018-07-22T05:10:37.205Z,4.57
2018-07-22T05:13:05.029Z,4.30
2018-07-22T05:15:32.778Z,4.47
2018-07-22T05:18:00.554Z,4.97
2018-07-22T05:20:28.265Z,5.33
2018-07-22T05:22:56.020Z,5.87
2018-07-22T05:25:23.941Z,5.77
2018-07-22T05:27:51.584Z,5.70
2018-07-22T05:30:19.277Z,5.40
2018-07-22T05:32:46.903Z,5.57
2018-07-22T05:35:14.548Z,5.70
2018-07-22T05:37:42.185Z,5.63
2018-07-22T05:40:09.870Z,5.73
2018-07-22T05:42:37.549Z,4.80
2018-07-22T05:45:05.395Z,5.53
2018-07-22T05:47:33.126Z,5.50
2018-07-22T05:50:01.497Z,6.17
2018-07-22T05:52:29.479Z,5.20
2018-07-22T05:54:57.160Z,5.20
2018-07-22T05:57:25.042Z,5.30
2018-07-22T05:59:52.731Z,5.90
2018-07-22T06:02:20.490Z,5.70
2018-07-22T06:04:48.336Z,5.53
2018-07-22T06:07:15.998Z,5.60
2018-07-22T06:09:43.678Z,5.40
2018-07-22T06:12:11.377Z,5.80
2018-07-22T06:14:39.137Z,5.13
2018-07-22T06:17:07.001Z,5.50
2018-07-22T06:19:34.679Z,6.47
2018-07-22T06:22:02.397Z,5.13
2018-07-22T06:24:30.071Z,4.37
2018-07-22T06:26:57.754Z,5.70
2018-07-22T06:29:25.452Z,4.93
2018-07-22T06:31:53.172Z,4.97
2018-07-22T06:34:20.837Z,5.30
2018-07-22T06:36:48.630Z,5.77
2018-07-22T06:39:16.319Z,4.87
2018-07-22T06:41:44.390Z,4.77
2018-07-22T06:44:12.106Z,4.83
2018-07-22T06:46:39.802Z,5.20
2018-07-22T06:49:07.524Z,5.10
2018-07-22T06:51:35.222Z,4.83
2018-07-22T06:54:03.190Z,4.87
2018-07-22T06:56:30.937Z,5.13
2018-07-22T06:58:58.626Z,5.67
2018-07-22T07:01:26.389Z,4.57
2018-07-22T07:03:54.183Z,5.33
2018-07-22T07:06:21.947Z,5.13
2018-07-22T07:08:49.180Z,5.23
2018-07-22T07:11:16.853Z,4.93
2018-07-22T07:13:44.570Z,5.77
2018-07-22T07:16:12.346Z,4.43
2018-07-22T07:18:40.018Z,5.00
2018-07-22T07:21:07.697Z,5.67
2018-07-22T07:23:35.464Z,4.83
2018-07-22T07:26:03.143Z,4.53
2018-07-22T07:28:30.887Z,5.50
2018-07-22T07:30:58.654Z,5.30
2018-07-22T07:33:26.483Z,4.90
2018-07-22T07:35:54.178Z,5.27
2018-07-22T07:38:21.917Z,4.80
2018-07-22T07:40:49.718Z,4.60
2018-07-22T07:43:18.318Z,3.90
2018-07-22T07:45:46.034Z,5.90
2018-07-22T07:48:13.869Z,5.20
2018-07-22T07:50:41.631Z,5.10
2018-07-22T07:53:09.360Z,4.97
2018-07-22T07:55:37.136Z,5.10
2018-07-22T07:58:04.925Z,4.97
2018-07-22T08:00:32.626Z,4.40
2018-07-22T08:03:00.250Z,5.23
2018-07-22T08:05:28.076Z,6.47
2018-07-22T08:07:55.680Z,5.20
2018-07-22T08:10:37.177Z,5.83
2018-07-22T08:13:05.613Z,4.73
2018-07-22T08:15:33.290Z,4.93
2018-07-22T08:18:01.030Z,4.83
2018-07-22T08:20:28.906Z,6.83
2018-07-22T08:22:56.674Z,4.97
2018-07-22T08:25:24.497Z,4.77
2018-07-22T08:27:52.222Z,4.80
2018-07-22T08:30:19.944Z,4.60
2018-07-22T08:32:47.761Z,6.00
2018-07-22T08:35:15.431Z,4.53
2018-07-22T08:37:43.186Z,6.07
2018-07-22T08:40:10.937Z,5.77
2018-07-22T08:42:38.605Z,6.23
2018-07-22T08:45:06.765Z,5.70
2018-07-22T08:47:34.480Z,7.00
2018-07-22T08:50:02.228Z,4.50
2018-07-22T08:52:29.996Z,5.10
2018-07-22T08:54:57.653Z,5.60
2018-07-22T08:57:25.469Z,5.27
2018-07-22T08:59:53.239Z,5.17
2018-07-22T09:02:21.034Z,5.17
2018-07-22T09:04:48.865Z,5.73
2018-07-22T09:07:16.553Z,4.80
2018-07-22T09:09:44.242Z,4.30
2018-07-22T09:12:12.046Z,4.53
2018-07-22T09:14:39.916Z,4.37
2018-07-22T09:17:07.701Z,4.13
2018-07-22T09:19:35.356Z,4.57
2018-07-22T09:22:03.038Z,5.10
2018-07-22T09:24:31.252Z,4.43
2018-07-22T09:26:59.024Z,4.43
2018-07-22T09:29:27.034Z,4.50
2018-07-22T09:31:54.765Z,4.60
2018-07-22T09:34:22.417Z,4.70
2018-07-22T09:36:50.085Z,4.63
2018-07-22T09:39:17.712Z,4.87
2018-07-22T09:41:45.429Z,4.97
2018-07-22T09:44:13.054Z,5.27
2018-07-22T09:46:40.701Z,4.30
2018-07-22T09:49:08.433Z,4.23
2018-07-22T09:51:36.109Z,4.43
2018-07-22T09:54:03.922Z,4.47
2018-07-22T09:56:31.561Z,4.80
2018-07-22T09:58:59.501Z,4.60
2018-07-22T10:01:27.109Z,4.80
2018-07-22T10:03:54.734Z,4.27
2018-07-22T10:06:22.522Z,4.27
2018-07-22T10:22:57.851Z,6.53
2018-07-22T10:25:25.539Z,6.20
2018-07-22T10:27:53.470Z,5.87
2018-07-22T10:30:21.236Z,5.90
2018-07-22T10:32:49.336Z,5.60
2018-07-22T10:35:17.064Z,5.67
2018-07-22T10:37:44.910Z,6.17
2018-07-22T10:40:13.400Z,5.53
2018-07-22T10:42:41.288Z,5.30
2018-07-22T10:45:09.091Z,5.70
2018-07-22T10:47:37.246Z,6.03
2018-07-22T10:50:05.274Z,6.70
2018-07-22T10:52:33.279Z,6.20
2018-07-22T10:55:01.002Z,6.13
2018-07-22T10:57:28.843Z,5.97
2018-07-22T10:59:56.675Z,6.07
2018-07-22T11:02:24.640Z,6.07
2018-07-22T11:04:52.914Z,5.67
2018-07-22T11:07:21.354Z,5.37
2018-07-22T11:09:49.695Z,5.90
2018-07-22T11:12:17.507Z,5.60
2018-07-22T11:14:45.300Z,5.70
2018-07-22T11:17:13.358Z,5.47
2018-07-22T11:19:41.186Z,6.57
2018-07-22T11:22:09.287Z,6.60
2018-07-22T11:24:37.118Z,5.67
2018-07-22T11:27:05.291Z,7.00
2018-07-22T11:29:33.287Z,5.63
2018-07-22T11:32:01.170Z,7.00
2018-07-22T11:34:28.961Z,5.00
2018-07-22T11:36:57.740Z,4.97
2018-07-22T11:39:25.726Z,5.30
2018-07-22T11:41:53.454Z,5.53
2018-07-22T11:44:21.440Z,5.30
2018-07-22T11:46:49.143Z,5.33
2018-07-22T11:49:16.835Z,6.40
2018-07-22T11:51:44.591Z,6.07
2018-07-22T11:54:12.302Z,8.13
2018-07-22T11:56:40.047Z,5.57
2018-07-22T11:59:07.778Z,5.50
2018-07-22T12:01:35.587Z,5.40
2018-07-22T12:04:03.327Z,6.50
2018-07-22T12:06:31.055Z,6.70
2018-07-22T12:08:58.771Z,5.40
2018-07-22T12:11:26.731Z,6.27
2018-07-22T12:13:54.465Z,5.13
2018-07-22T12:16:22.202Z,4.63
2018-07-22T12:18:50.851Z,4.93
2018-07-22T12:21:18.567Z,5.53
2018-07-22T12:23:46.289Z,4.87
2018-07-22T12:26:13.986Z,4.77
2018-07-22T12:28:41.715Z,5.25
2018-07-22T12:31:09.483Z,5.60
2018-07-22T12:33:37.211Z,6.33
2018-07-22T12:36:05.671Z,5.90
2018-07-22T12:38:33.384Z,6.77
2018-07-22T12:41:01.119Z,5.53
2018-07-22T12:43:28.846Z,6.40
2018-07-22T12:45:56.567Z,5.80
2018-07-22T12:48:24.298Z,7.13
2018-07-22T12:50:52.015Z,5.00
2018-07-22T12:53:19.751Z,5.03
2018-07-22T12:55:47.532Z,5.83
2018-07-22T12:58:15.311Z,5.93
2018-07-22T13:00:43.051Z,6.40
2018-07-22T13:03:11.026Z,6.10
2018-07-22T13:05:38.767Z,5.70
2018-07-22T13:08:06.839Z,5.97
2018-07-22T13:10:37.629Z,5.47
2018-07-22T13:13:05.458Z,5.47
2018-07-22T13:15:33.169Z,5.90
2018-07-22T13:18:00.996Z,5.17
2018-07-22T13:20:28.698Z,5.20
2018-07-22T13:22:56.722Z,5.27
2018-07-22T13:25:24.491Z,5.57
2018-07-22T13:27:52.243Z,5.30
2018-07-22T13:30:19.930Z,4.47
2018-07-22T13:32:47.635Z,5.93
2018-07-22T13:35:15.455Z,4.97
2018-07-22T13:37:43.175Z,5.10
2018-07-22T13:40:10.961Z,6.43
2018-07-22T13:42:38.724Z,5.03
2018-07-22T13:45:06.542Z,4.53
2018-07-22T13:47:34.249Z,5.60
2018-07-22T13:50:02.079Z,5.17
2018-07-22T13:52:29.895Z,5.37
2018-07-22T13:54:57.660Z,5.10
2018-07-22T13:57:25.408Z,6.00
2018-07-22T13:59:53.197Z,5.40
2018-07-22T14:02:20.948Z,6.30
2018-07-22T14:04:48.668Z,6.43
2018-07-22T14:07:16.404Z,5.67
2018-07-22T14:09:44.147Z,5.97
2018-07-22T14:12:11.888Z,5.80
2018-07-22T14:14:39.591Z,5.80
2018-07-22T14:17:07.308Z,6.10
2018-07-22T14:19:35.115Z,6.37
2018-07-22T14:22:02.863Z,7.00
2018-07-22T14:24:30.617Z,6.50
2018-07-22T14:26:58.347Z,6.00
2018-07-22T14:29:26.189Z,6.50
2018-07-22T14:32:40.700Z,7.20
2018-07-22T14:35:16.219Z,7.50
2018-07-22T14:37:43.954Z,6.20
2018-07-22T14:40:11.684Z,5.80
2018-07-22T14:42:39.402Z,5.00
2018-07-22T14:45:07.682Z,5.43
2018-07-22T14:47:35.535Z,5.47
2018-07-22T14:50:03.410Z,5.50
2018-07-22T14:52:31.179Z,5.37
2018-07-22T14:54:58.934Z,4.97
2018-07-22T14:57:26.710Z,5.03
2018-07-22T14:59:54.451Z,5.80
2018-07-22T15:02:22.187Z,5.93
2018-07-22T15:04:49.918Z,6.30
2018-07-22T15:07:17.890Z,6.73
2018-07-22T15:09:45.643Z,6.90
2018-07-22T15:12:13.479Z,6.70
2018-07-22T15:14:41.261Z,6.70
2018-07-22T15:17:09.045Z,6.40
2018-07-22T15:19:36.786Z,5.50
2018-07-22T15:22:04.591Z,6.67
2018-07-22T15:24:32.409Z,6.57
2018-07-22T15:27:00.135Z,7.17
2018-07-22T15:29:27.848Z,6.20
2018-07-22T15:31:55.587Z,7.13
2018-07-22T15:34:23.300Z,7.67
2018-07-22T15:36:50.987Z,8.43
2018-07-22T15:39:18.688Z,8.27
2018-07-22T15:41:46.374Z,8.63
2018-07-22T15:44:14.113Z,8.10
2018-07-22T15:46:42.115Z,8.40
2018-07-22T15:49:09.877Z,9.37
2018-07-22T15:51:37.609Z,9.17
2018-07-22T15:54:05.316Z,9.20
2018-07-22T15:56:33.026Z,8.97
2018-07-22T15:59:00.818Z,9.97
2018-07-22T16:01:28.630Z,8.90
2018-07-22T16:03:57.453Z,10.10
2018-07-22T16:06:25.120Z,10.03
2018-07-22T16:08:52.846Z,9.47
2018-07-22T16:11:20.646Z,9.10
2018-07-22T16:13:48.317Z,9.50
2018-07-22T16:16:16.221Z,9.00
2018-07-22T16:18:43.858Z,9.40
2018-07-22T16:21:11.508Z,9.67
2018-07-22T16:23:39.482Z,8.87
2018-07-22T16:26:07.148Z,8.07
2018-07-22T16:28:34.938Z,7.83
2018-07-22T16:31:02.670Z,8.00
2018-07-22T16:33:30.507Z,7.87
2018-07-22T16:35:58.183Z,7.97
2018-07-22T16:38:25.814Z,8.33
2018-07-22T16:40:53.557Z,7.90
2018-07-22T16:43:21.417Z,8.00
2018-07-22T16:45:49.366Z,9.93
2018-07-22T16:48:17.134Z,10.40
2018-07-22T16:50:44.892Z,9.30
2018-07-22T16:53:12.613Z,10.00
2018-07-22T16:55:40.249Z,9.13
2018-07-22T16:58:07.973Z,9.87
2018-07-22T17:00:35.621Z,9.37
2018-07-22T17:03:03.281Z,9.60
2018-07-22T17:05:31.070Z,8.70
2018-07-22T17:07:58.746Z,8.57
2018-07-22T17:10:36.595Z,9.07
2018-07-22T17:13:04.393Z,8.43
2018-07-22T17:15:32.036Z,8.50
2018-07-22T17:17:59.705Z,8.40
2018-07-22T17:20:27.459Z,8.10
2018-07-22T17:22:55.229Z,8.73
2018-07-22T17:25:22.933Z,8.27
2018-07-22T17:27:50.655Z,8.93
2018-07-22T17:30:18.361Z,8.83
2018-07-22T17:32:46.108Z,9.43
2018-07-22T17:35:13.805Z,9.37
2018-07-22T17:37:41.565Z,10.33
2018-07-22T17:40:09.418Z,9.53
2018-07-22T17:42:37.205Z,9.50
2018-07-22T17:45:05.040Z,10.77
2018-07-22T17:47:32.733Z,10.50
2018-07-22T17:50:00.538Z,10.57
2018-07-22T17:52:28.294Z,10.20
2018-07-22T17:54:56.146Z,9.40
2018-07-22T17:57:23.892Z,9.70
2018-07-22T17:59:51.518Z,10.77
2018-07-22T18:02:19.220Z,9.93
2018-07-22T18:04:47.099Z,9.50
2018-07-22T18:07:14.813Z,9.67
2018-07-22T18:09:42.484Z,11.17
2018-07-22T18:12:10.238Z,10.03
2018-07-22T18:14:38.073Z,9.33
2018-07-22T18:17:05.809Z,9.60
2018-07-22T18:19:33.466Z,9.67
2018-07-22T18:22:01.226Z,10.63
2018-07-22T18:24:28.992Z,9.37
2018-07-22T18:26:56.876Z,9.57
2018-07-22T18:29:24.734Z,9.83
2018-07-22T18:31:52.406Z,9.43
2018-07-22T18:36:53.709Z,9.67
2018-07-22T18:39:21.433Z,8.73
2018-07-22T18:41:49.238Z,8.50
2018-07-22T18:44:16.910Z,8.70
2018-07-22T18:46:44.596Z,8.90
2018-07-22T18:49:12.630Z,8.43
2018-07-22T18:51:40.461Z,8.27
2018-07-22T18:54:08.199Z,8.50
2018-07-22T18:56:35.849Z,8.80
2018-07-22T18:59:03.647Z,7.77
2018-07-22T19:01:31.295Z,7.60
2018-07-22T19:04:00.199Z,8.10
2018-07-22T19:06:27.866Z,7.47
2018-07-22T19:08:55.868Z,8.30
2018-07-22T19:11:23.538Z,9.10
2018-07-22T19:13:51.238Z,9.47
2018-07-22T19:16:18.937Z,8.80
2018-07-22T19:18:46.645Z,9.10
2018-07-22T19:21:14.781Z,8.73
2018-07-22T19:23:42.409Z,8.87
2018-07-22T19:26:10.178Z,9.23
2018-07-22T19:28:38.020Z,10.70
2018-07-22T19:31:05.705Z,9.40
2018-07-22T19:33:33.475Z,10.47
2018-07-22T19:36:01.225Z,9.97
2018-07-22T19:38:28.951Z,10.40
2018-07-22T19:40:56.646Z,9.87
2018-07-22T19:43:24.560Z,11.10
2018-07-22T19:45:52.276Z,9.30
2018-07-22T19:48:19.925Z,10.40
2018-07-22T19:50:48.182Z,9.87
2018-07-22T19:53:15.857Z,10.90
2018-07-22T19:55:43.554Z,10.63
2018-07-22T19:58:11.168Z,10.80
2018-07-22T20:00:38.951Z,10.20
2018-07-22T20:03:06.974Z,9.27
2018-07-22T20:05:34.766Z,10.23
2018-07-22T20:08:02.469Z,10.00
2018-07-22T20:10:36.825Z,11.17
2018-07-22T20:13:04.514Z,10.50
2018-07-22T20:15:32.173Z,10.47
2018-07-22T20:18:00.049Z,9.77
2018-07-22T20:20:27.789Z,11.07
2018-07-22T20:22:55.602Z,9.33
2018-07-22T20:25:23.446Z,9.50
2018-07-22T20:27:51.229Z,11.03
2018-07-22T20:30:19.028Z,10.43
2018-07-22T20:32:46.942Z,9.67
2018-07-22T20:35:14.585Z,9.80
2018-07-22T20:37:42.286Z,10.17
2018-07-22T20:40:10.128Z,9.43
2018-07-22T20:42:37.922Z,9.23
2018-07-22T20:45:05.627Z,9.50
2018-07-22T20:47:33.336Z,9.67
2018-07-22T20:50:01.061Z,10.00
2018-07-22T20:52:29.489Z,9.80
2018-07-22T20:54:57.182Z,9.93
2018-07-22T20:57:24.982Z,9.93
2018-07-22T20:59:52.597Z,11.20
2018-07-22T21:02:20.310Z,10.77
2018-07-22T21:04:48.038Z,11.97
2018-07-22T21:07:15.665Z,11.10
2018-07-22T21:09:43.330Z,10.53
2018-07-22T21:12:54.454Z,10.87
2018-07-22T21:15:22.132Z,10.37
2018-07-22T21:17:50.692Z,11.47
2018-07-22T21:20:19.493Z,12.10
2018-07-22T21:22:47.317Z,11.50
2018-07-22T21:25:15.529Z,11.53
2018-07-22T21:27:44.354Z,11.03
2018-07-22T21:30:12.616Z,11.57
2018-07-22T21:32:47.177Z,13.60
2018-07-22T21:35:14.920Z,12.10
2018-07-22T21:37:42.669Z,11.97
2018-07-22T21:40:10.409Z,12.97
2018-07-22T21:42:38.045Z,11.07
2018-07-22T21:45:06.547Z,11.33
2018-07-22T21:47:34.525Z,10.07
2018-07-22T21:50:02.334Z,9.57
2018-07-22T21:52:29.981Z,8.97
2018-07-22T21:54:57.681Z,8.87
2018-07-22T21:57:25.315Z,8.77
2018-07-22T21:59:52.947Z,8.87
2018-07-22T22:02:20.657Z,8.03
2018-07-22T22:04:48.325Z,8.23
2018-07-22T22:07:15.999Z,8.83
2018-07-22T22:09:43.661Z,9.30
2018-07-22T22:12:11.333Z,7.80
2018-07-22T22:14:39.025Z,8.07
2018-07-22T22:17:06.805Z,8.13
2018-07-22T22:19:34.402Z,8.37
2018-07-22T22:22:02.130Z,8.30
2018-07-22T22:24:29.845Z,8.63
2018-07-22T22:26:57.537Z,8.20
2018-07-22T22:29:25.283Z,8.50
2018-07-22T22:31:52.925Z,8.57
2018-07-22T22:34:20.626Z,8.80
2018-07-22T22:36:48.402Z,8.60
2018-07-22T22:39:16.043Z,8.30
2018-07-22T22:41:43.681Z,9.37
2018-07-22T22:44:11.420Z,8.97
2018-07-22T22:46:39.757Z,8.20
2018-07-22T22:49:07.713Z,8.57
2018-07-22T22:51:35.345Z,9.13
2018-07-22T22:54:03.073Z,8.83
2018-07-22T22:56:30.813Z,8.23
2018-07-22T22:59:14.198Z,7.90
2018-07-22T23:01:41.917Z,10.67
2018-07-22T23:04:09.565Z,9.57
2018-07-22T23:06:37.360Z,8.67
2018-07-22T23:09:08.182Z,8.80
2018-07-22T23:11:36.133Z,9.57
2018-07-22T23:14:04.090Z,9.27
2018-07-22T23:16:31.925Z,9.60
2018-07-22T23:18:59.641Z,8.57
2018-07-22T23:21:27.252Z,8.73
2018-07-22T23:23:54.953Z,8.33
2018-07-22T23:26:22.650Z,8.70
2018-07-22T23:28:50.368Z,7.93
2018-07-22T23:31:18.025Z,8.03
2018-07-22T23:33:45.656Z,8.43
2018-07-22T23:36:13.386Z,8.67
2018-07-22T23:38:41.013Z,7.90
2018-07-22T23:41:08.662Z,8.03
2018-07-22T23:43:36.339Z,8.33
2018-07-22T23:46:04.228Z,8.20
2018-07-22T23:48:31.905Z,8.27
2018-07-22T23:50:59.558Z,8.00
2018-07-22T23:53:27.285Z,7.63
2018-07-22T23:55:54.955Z,8.40
2018-07-22T23:58:22.601Z,7.77
